KLHW

Wright AAF (Fort Stewart) / Midcoast Regional Airport

Fort Stewart(Hinesville), Georgia, USA
METAR KLHW 232256Z AUTO 25011KT 10SM CLR 18/M04 A2997 RMK AO2 SLP152 T01841037 $
Observed Flight Rules
Jan-23 @ 22:56 UTC (34 minutes ago) Visual Flight Rules
Wind Visibility Clouds
250° at 11 knots 10 miles
  • Clear skies
Temperatures Readings
Current 18°C / 64°F
Dewpoint -4°C / 25°F
Humidity 22%
Altimeter 29.97" Hg
Pressure 1015.2 hPa
Elevation 14
METAR KLHW 232256Z AUTO 25011KT 10SM CLR 18/M04 A2997 RMK AO2 SLP152 T01841037 $
Observed Flight Rules
Jan-23 @ 22:56 UTC
(34 minutes ago)
VFR
Wind Visibility
250° at 11 knots 10 miles
Clouds
  • Clear skies
Temperature Dewpoint
18°C / 64°F -4°C / 25°F
Humidity Altimeter Pressure
22% 29.97" Hg 1015.2 hPa